sensor_id;sensor_type;location;lat;lon;timestamp;temperature;humidity
3794;DHT22;1912;51.358;12.282;2022-12-29T00:00:06;8.10;1.00
3794;DHT22;1912;51.358;12.282;2022-12-29T00:02:33;8.10;1.00
3794;DHT22;1912;51.358;12.282;2022-12-29T00:04:58;8.10;1.00
3794;DHT22;1912;51.358;12.282;2022-12-29T00:07:24;8.00;1.00
3794;DHT22;1912;51.358;12.282;2022-12-29T00:09:49;8.10;1.00
3794;DHT22;1912;51.358;12.282;2022-12-29T00:12:15;8.10;1.00
3794;DHT22;1912;51.358;12.282;2022-12-29T00:14:41;8.10;1.00
3794;DHT22;1912;51.358;12.282;2022-12-29T00:17:25;8.20;1.00
3794;DHT22;1912;51.358;12.282;2022-12-29T00:19:50;8.20;1.00
3794;DHT22;1912;51.358;12.282;2022-12-29T00:22:35;8.20;1.00
3794;DHT22;1912;51.358;12.282;2022-12-29T00:25:19;8.20;1.00
3794;DHT22;1912;51.358;12.282;2022-12-29T00:28:04;8.20;1.00
3794;DHT22;1912;51.358;12.282;2022-12-29T00:30:48;8.30;1.00
3794;DHT22;1912;51.358;12.282;2022-12-29T00:33:33;8.20;1.00
3794;DHT22;1912;51.358;12.282;2022-12-29T00:36:33;8.30;1.00
3794;DHT22;1912;51.358;12.282;2022-12-29T00:39:03;8.40;1.00
3794;DHT22;1912;51.358;12.282;2022-12-29T00:41:51;8.40;1.00
3794;DHT22;1912;51.358;12.282;2022-12-29T00:44:35;8.50;1.00
3794;DHT22;1912;51.358;12.282;2022-12-29T00:47:01;8.50;1.00
3794;DHT22;1912;51.358;12.282;2022-12-29T00:49:28;8.50;1.00
3794;DHT22;1912;51.358;12.282;2022-12-29T00:52:03;8.60;1.00
3794;DHT22;1912;51.358;12.282;2022-12-29T00:54:35;8.60;1.00
3794;DHT22;1912;51.358;12.282;2022-12-29T00:57:04;8.60;1.00
3794;DHT22;1912;51.358;12.282;2022-12-29T00:59:30;8.70;1.00
3794;DHT22;1912;51.358;12.282;2022-12-29T01:01:57;8.80;1.00
3794;DHT22;1912;51.358;12.282;2022-12-29T01:04:25;8.80;1.00
3794;DHT22;1912;51.358;12.282;2022-12-29T01:06:51;8.90;1.00
3794;DHT22;1912;51.358;12.282;2022-12-29T01:09:18;8.90;1.00
3794;DHT22;1912;51.358;12.282;2022-12-29T01:12:03;8.90;1.00
3794;DHT22;1912;51.358;12.282;2022-12-29T01:14:29;8.80;1.00
3794;DHT22;1912;51.358;12.282;2022-12-29T01:16:55;8.80;1.00
3794;DHT22;1912;51.358;12.282;2022-12-29T01:19:21;8.80;1.00
3794;DHT22;1912;51.358;12.282;2022-12-29T01:21:47;8.80;1.00
3794;DHT22;1912;51.358;12.282;2022-12-29T01:24:15;8.90;1.00
3794;DHT22;1912;51.358;12.282;2022-12-29T01:26:41;8.90;1.00
3794;DHT22;1912;51.358;12.282;2022-12-29T01:29:07;9.00;1.00
3794;DHT22;1912;51.358;12.282;2022-12-29T01:31:33;9.00;1.00
3794;DHT22;1912;51.358;12.282;2022-12-29T01:33:58;9.00;1.00
3794;DHT22;1912;51.358;12.282;2022-12-29T01:36:24;9.00;1.00
3794;DHT22;1912;51.358;12.282;2022-12-29T01:38:50;9.00;1.00
3794;DHT22;1912;51.358;12.282;2022-12-29T01:41:16;9.00;1.00
3794;DHT22;1912;51.358;12.282;2022-12-29T01:43:43;9.00;1.00
3794;DHT22;1912;51.358;12.282;2022-12-29T01:51:56;9.10;1.00
3794;DHT22;1912;51.358;12.282;2022-12-29T01:54:31;9.10;1.00
3794;DHT22;1912;51.358;12.282;2022-12-29T01:57:01;9.20;1.00
3794;DHT22;1912;51.358;12.282;2022-12-29T01:59:34;9.20;1.00
3794;DHT22;1912;51.358;12.282;2022-12-29T02:02:02;9.20;1.00
3794;DHT22;1912;51.358;12.282;2022-12-29T02:04:31;9.20;1.00
3794;DHT22;1912;51.358;12.282;2022-12-29T02:07:01;9.20;1.00
3794;DHT22;1912;51.358;12.282;2022-12-29T02:09:29;9.20;1.00
3794;DHT22;1912;51.358;12.282;2022-12-29T02:11:56;9.20;1.00
3794;DHT22;1912;51.358;12.282;2022-12-29T02:14:23;9.20;1.00
3794;DHT22;1912;51.358;12.282;2022-12-29T02:19:56;9.30;1.00
3794;DHT22;1912;51.358;12.282;2022-12-29T02:22:48;9.30;1.00
3794;DHT22;1912;51.358;12.282;2022-12-29T02:28:51;9.40;1.00
3794;DHT22;1912;51.358;12.282;2022-12-29T02:45:36;9.50;1.00
3794;DHT22;1912;51.358;12.282;2022-12-29T02:48:41;9.50;1.00
3794;DHT22;1912;51.358;12.282;2022-12-29T02:51:15;9.50;1.00
3794;DHT22;1912;51.358;12.282;2022-12-29T02:53:45;9.50;1.00
3794;DHT22;1912;51.358;12.282;2022-12-29T02:56:30;9.50;1.00
3794;DHT22;1912;51.358;12.282;2022-12-29T02:58:55;9.50;1.00
3794;DHT22;1912;51.358;12.282;2022-12-29T03:01:40;9.50;1.00
3794;DHT22;1912;51.358;12.282;2022-12-29T03:05:21;9.40;1.00
3794;DHT22;1912;51.358;12.282;2022-12-29T03:07:39;9.40;1.00
3794;DHT22;1912;51.358;12.282;2022-12-29T03:10:30;9.40;1.00
3794;DHT22;1912;51.358;12.282;2022-12-29T03:16:29;9.30;1.00
3794;DHT22;1912;51.358;12.282;2022-12-29T03:19:08;9.30;1.00
3794;DHT22;1912;51.358;12.282;2022-12-29T03:21:39;9.30;1.00
3794;DHT22;1912;51.358;12.282;2022-12-29T03:24:29;9.40;1.00
3794;DHT22;1912;51.358;12.282;2022-12-29T03:27:03;9.50;1.00
3794;DHT22;1912;51.358;12.282;2022-12-29T03:29:34;9.50;1.00
3794;DHT22;1912;51.358;12.282;2022-12-29T03:32:03;9.50;1.00
3794;DHT22;1912;51.358;12.282;2022-12-29T03:34:30;9.50;1.00
3794;DHT22;1912;51.358;12.282;2022-12-29T03:37:02;9.50;1.00
3794;DHT22;1912;51.358;12.282;2022-12-29T03:39:31;9.50;1.00
3794;DHT22;1912;51.358;12.282;2022-12-29T03:42:04;9.60;1.00
3794;DHT22;1912;51.358;12.282;2022-12-29T03:44:40;9.60;1.00
3794;DHT22;1912;51.358;12.282;2022-12-29T03:47:09;9.70;1.00
3794;DHT22;1912;51.358;12.282;2022-12-29T03:49:36;9.60;1.00
3794;DHT22;1912;51.358;12.282;2022-12-29T03:52:02;9.60;1.00
3794;DHT22;1912;51.358;12.282;2022-12-29T03:54:29;9.60;1.00
3794;DHT22;1912;51.358;12.282;2022-12-29T03:56:55;9.60;1.00
3794;DHT22;1912;51.358;12.282;2022-12-29T04:48:03;9.60;1.00
3794;DHT22;1912;51.358;12.282;2022-12-29T04:50:30;9.60;1.00
3794;DHT22;1912;51.358;12.282;2022-12-29T04:52:55;9.50;1.00
3794;DHT22;1912;51.358;12.282;2022-12-29T04:55:21;9.50;1.00
3794;DHT22;1912;51.358;12.282;2022-12-29T04:57:46;9.60;1.00
3794;DHT22;1912;51.358;12.282;2022-12-29T05:00:12;9.70;1.00
3794;DHT22;1912;51.358;12.282;2022-12-29T05:02:38;9.70;1.00
3794;DHT22;1912;51.358;12.282;2022-12-29T05:05:05;9.60;1.00
3794;DHT22;1912;51.358;12.282;2022-12-29T05:07:31;9.70;1.00
3794;DHT22;1912;51.358;12.282;2022-12-29T05:09:58;9.70;1.00
3794;DHT22;1912;51.358;12.282;2022-12-29T05:12:24;9.80;1.00
3794;DHT22;1912;51.358;12.282;2022-12-29T05:14:50;9.70;1.00
3794;DHT22;1912;51.358;12.282;2022-12-29T05:17:15;9.70;1.00
3794;DHT22;1912;51.358;12.282;2022-12-29T05:19:41;9.60;1.00
3794;DHT22;1912;51.358;12.282;2022-12-29T05:22:07;9.70;1.00
3794;DHT22;1912;51.358;12.282;2022-12-29T05:24:32;9.60;1.00
3794;DHT22;1912;51.358;12.282;2022-12-29T05:26:58;9.60;1.00
3794;DHT22;1912;51.358;12.282;2022-12-29T05:29:24;9.50;1.00
3794;DHT22;1912;51.358;12.282;2022-12-29T05:31:49;9.50;1.00
3794;DHT22;1912;51.358;12.282;2022-12-29T05:34:15;9.50;1.00
3794;DHT22;1912;51.358;12.282;2022-12-29T05:36:41;9.50;1.00
3794;DHT22;1912;51.358;12.282;2022-12-29T05:39:06;9.50;1.00
3794;DHT22;1912;51.358;12.282;2022-12-29T05:41:33;9.50;1.00
3794;DHT22;1912;51.358;12.282;2022-12-29T05:43:59;9.60;1.00
3794;DHT22;1912;51.358;12.282;2022-12-29T05:46:25;9.60;1.00
3794;DHT22;1912;51.358;12.282;2022-12-29T05:48:51;9.70;1.00
3794;DHT22;1912;51.358;12.282;2022-12-29T05:51:17;9.60;1.00
3794;DHT22;1912;51.358;12.282;2022-12-29T05:53:43;9.50;1.00
3794;DHT22;1912;51.358;12.282;2022-12-29T05:56:09;9.50;1.00
3794;DHT22;1912;51.358;12.282;2022-12-29T05:58:35;9.50;1.00
3794;DHT22;1912;51.358;12.282;2022-12-29T06:01:00;9.50;1.00
3794;DHT22;1912;51.358;12.282;2022-12-29T06:03:26;9.40;1.00
3794;DHT22;1912;51.358;12.282;2022-12-29T06:05:52;9.30;1.00
3794;DHT22;1912;51.358;12.282;2022-12-29T06:08:17;9.30;1.00
3794;DHT22;1912;51.358;12.282;2022-12-29T06:10:43;9.30;1.00
3794;DHT22;1912;51.358;12.282;2022-12-29T06:13:09;9.30;1.00
3794;DHT22;1912;51.358;12.282;2022-12-29T06:15:34;9.30;1.00
3794;DHT22;1912;51.358;12.282;2022-12-29T06:18:00;9.40;1.00
3794;DHT22;1912;51.358;12.282;2022-12-29T06:20:26;9.40;1.00
3794;DHT22;1912;51.358;12.282;2022-12-29T06:22:51;9.40;1.00
3794;DHT22;1912;51.358;12.282;2022-12-29T06:25:17;9.60;1.00
3794;DHT22;1912;51.358;12.282;2022-12-29T06:27:43;9.60;1.00
3794;DHT22;1912;51.358;12.282;2022-12-29T06:30:10;9.50;1.00
3794;DHT22;1912;51.358;12.282;2022-12-29T06:32:36;9.50;1.00
3794;DHT22;1912;51.358;12.282;2022-12-29T06:35:03;9.60;1.00
3794;DHT22;1912;51.358;12.282;2022-12-29T06:37:29;9.60;1.00
3794;DHT22;1912;51.358;12.282;2022-12-29T06:39:55;9.60;1.00
3794;DHT22;1912;51.358;12.282;2022-12-29T06:42:20;9.60;1.00
3794;DHT22;1912;51.358;12.282;2022-12-29T06:44:46;9.70;1.00
3794;DHT22;1912;51.358;12.282;2022-12-29T06:47:12;9.70;1.00
3794;DHT22;1912;51.358;12.282;2022-12-29T06:49:37;9.70;1.00
3794;DHT22;1912;51.358;12.282;2022-12-29T06:52:04;9.70;1.00
3794;DHT22;1912;51.358;12.282;2022-12-29T06:54:31;9.80;1.00
3794;DHT22;1912;51.358;12.282;2022-12-29T06:56:57;9.80;1.00
3794;DHT22;1912;51.358;12.282;2022-12-29T06:59:23;9.90;1.00
3794;DHT22;1912;51.358;12.282;2022-12-29T07:01:50;9.90;1.00
3794;DHT22;1912;51.358;12.282;2022-12-29T07:04:16;9.80;1.00
3794;DHT22;1912;51.358;12.282;2022-12-29T07:06:41;9.80;1.00
3794;DHT22;1912;51.358;12.282;2022-12-29T07:09:07;9.80;1.00
3794;DHT22;1912;51.358;12.282;2022-12-29T07:11:34;9.80;1.00
3794;DHT22;1912;51.358;12.282;2022-12-29T07:13:59;9.70;1.00
3794;DHT22;1912;51.358;12.282;2022-12-29T07:16:25;9.70;1.00
3794;DHT22;1912;51.358;12.282;2022-12-29T07:18:51;9.70;1.00
3794;DHT22;1912;51.358;12.282;2022-12-29T07:21:17;9.70;1.00
3794;DHT22;1912;51.358;12.282;2022-12-29T07:23:43;9.70;1.00
3794;DHT22;1912;51.358;12.282;2022-12-29T07:26:12;9.60;1.00
3794;DHT22;1912;51.358;12.282;2022-12-29T07:28:38;9.70;1.00
3794;DHT22;1912;51.358;12.282;2022-12-29T07:31:05;9.70;1.00
3794;DHT22;1912;51.358;12.282;2022-12-29T07:33:32;9.60;1.00
3794;DHT22;1912;51.358;12.282;2022-12-29T07:35:58;9.60;1.00
3794;DHT22;1912;51.358;12.282;2022-12-29T07:38:24;9.50;1.00
3794;DHT22;1912;51.358;12.282;2022-12-29T07:40:50;9.50;1.00
3794;DHT22;1912;51.358;12.282;2022-12-29T07:43:16;9.50;1.00
3794;DHT22;1912;51.358;12.282;2022-12-29T07:45:41;9.60;1.00
3794;DHT22;1912;51.358;12.282;2022-12-29T07:48:07;9.50;1.00
3794;DHT22;1912;51.358;12.282;2022-12-29T07:50:34;9.60;1.00
3794;DHT22;1912;51.358;12.282;2022-12-29T07:53:01;9.60;1.00
3794;DHT22;1912;51.358;12.282;2022-12-29T07:55:27;9.50;1.00
3794;DHT22;1912;51.358;12.282;2022-12-29T07:57:56;9.50;1.00
3794;DHT22;1912;51.358;12.282;2022-12-29T08:00:22;9.50;1.00
3794;DHT22;1912;51.358;12.282;2022-12-29T08:02:48;9.70;1.00
3794;DHT22;1912;51.358;12.282;2022-12-29T08:05:16;9.70;1.00
3794;DHT22;1912;51.358;12.282;2022-12-29T08:07:45;9.70;1.00
3794;DHT22;1912;51.358;12.282;2022-12-29T08:10:12;9.70;1.00
3794;DHT22;1912;51.358;12.282;2022-12-29T08:12:38;9.80;1.00
3794;DHT22;1912;51.358;12.282;2022-12-29T08:15:05;9.80;1.00
3794;DHT22;1912;51.358;12.282;2022-12-29T08:17:32;9.80;1.00
3794;DHT22;1912;51.358;12.282;2022-12-29T08:19:58;9.80;1.00
3794;DHT22;1912;51.358;12.282;2022-12-29T08:22:24;9.80;1.00
3794;DHT22;1912;51.358;12.282;2022-12-29T08:24:49;9.90;1.00
3794;DHT22;1912;51.358;12.282;2022-12-29T08:27:15;9.90;1.00
3794;DHT22;1912;51.358;12.282;2022-12-29T08:29:41;10.00;1.00
3794;DHT22;1912;51.358;12.282;2022-12-29T08:32:06;9.90;1.00
3794;DHT22;1912;51.358;12.282;2022-12-29T08:34:32;10.00;1.00
3794;DHT22;1912;51.358;12.282;2022-12-29T08:36:58;10.00;1.00
3794;DHT22;1912;51.358;12.282;2022-12-29T08:39:23;10.10;1.00
3794;DHT22;1912;51.358;12.282;2022-12-29T08:41:49;10.10;1.00
3794;DHT22;1912;51.358;12.282;2022-12-29T08:44:15;10.10;1.00
3794;DHT22;1912;51.358;12.282;2022-12-29T08:46:41;10.10;1.00
3794;DHT22;1912;51.358;12.282;2022-12-29T08:49:06;10.10;1.00
3794;DHT22;1912;51.358;12.282;2022-12-29T08:51:32;10.20;1.00
3794;DHT22;1912;51.358;12.282;2022-12-29T08:53:58;10.30;1.00
3794;DHT22;1912;51.358;12.282;2022-12-29T08:56:24;10.40;1.00
3794;DHT22;1912;51.358;12.282;2022-12-29T08:58:51;10.60;1.00
3794;DHT22;1912;51.358;12.282;2022-12-29T09:01:17;11.00;1.00
3794;DHT22;1912;51.358;12.282;2022-12-29T09:03:43;11.30;1.00
3794;DHT22;1912;51.358;12.282;2022-12-29T09:06:08;11.50;1.00
3794;DHT22;1912;51.358;12.282;2022-12-29T09:08:34;11.70;1.00
3794;DHT22;1912;51.358;12.282;2022-12-29T09:11:12;11.90;1.00
3794;DHT22;1912;51.358;12.282;2022-12-29T09:13:42;12.10;1.00
3794;DHT22;1912;51.358;12.282;2022-12-29T09:16:08;12.30;1.00
3794;DHT22;1912;51.358;12.282;2022-12-29T09:18:34;12.30;1.00
3794;DHT22;1912;51.358;12.282;2022-12-29T09:21:00;12.40;1.00
3794;DHT22;1912;51.358;12.282;2022-12-29T09:23:28;12.50;1.00
3794;DHT22;1912;51.358;12.282;2022-12-29T09:25:54;12.60;1.00
3794;DHT22;1912;51.358;12.282;2022-12-29T09:28:20;12.60;1.00
3794;DHT22;1912;51.358;12.282;2022-12-29T09:30:47;12.60;1.00
3794;DHT22;1912;51.358;12.282;2022-12-29T09:33:13;12.60;1.00
3794;DHT22;1912;51.358;12.282;2022-12-29T09:35:49;12.60;1.00
3794;DHT22;1912;51.358;12.282;2022-12-29T09:38:16;12.60;1.00
3794;DHT22;1912;51.358;12.282;2022-12-29T09:40:44;12.60;1.00
3794;DHT22;1912;51.358;12.282;2022-12-29T09:43:41;12.60;1.00
3794;DHT22;1912;51.358;12.282;2022-12-29T09:46:25;12.60;1.00
3794;DHT22;1912;51.358;12.282;2022-12-29T09:49:18;12.50;1.00
3794;DHT22;1912;51.358;12.282;2022-12-29T09:51:59;12.40;1.00
3794;DHT22;1912;51.358;12.282;2022-12-29T09:54:52;12.30;1.00
3794;DHT22;1912;51.358;12.282;2022-12-29T09:57:32;12.30;1.00
3794;DHT22;1912;51.358;12.282;2022-12-29T10:00:06;12.20;1.00
3794;DHT22;1912;51.358;12.282;2022-12-29T10:02:43;12.20;1.00
3794;DHT22;1912;51.358;12.282;2022-12-29T10:05:30;12.20;1.00
3794;DHT22;1912;51.358;12.282;2022-12-29T10:11:56;12.00;1.00
3794;DHT22;1912;51.358;12.282;2022-12-29T10:20:56;11.90;1.00
3794;DHT22;1912;51.358;12.282;2022-12-29T10:26:26;11.70;1.00
3794;DHT22;1912;51.358;12.282;2022-12-29T10:29:05;11.60;1.00
3794;DHT22;1912;51.358;12.282;2022-12-29T10:31:48;11.60;1.00
3794;DHT22;1912;51.358;12.282;2022-12-29T10:34:26;11.60;1.00
3794;DHT22;1912;51.358;12.282;2022-12-29T10:37:00;11.50;1.00
3794;DHT22;1912;51.358;12.282;2022-12-29T10:39:41;11.50;1.00
3794;DHT22;1912;51.358;12.282;2022-12-29T10:42:41;11.70;1.00
3794;DHT22;1912;51.358;12.282;2022-12-29T10:45:13;11.90;1.00
3794;DHT22;1912;51.358;12.282;2022-12-29T10:48:02;12.10;1.00
3794;DHT22;1912;51.358;12.282;2022-12-29T10:50:30;12.50;1.00
3794;DHT22;1912;51.358;12.282;2022-12-29T10:52:59;12.80;1.00
3794;DHT22;1912;51.358;12.282;2022-12-29T10:55:33;13.00;1.00
3794;DHT22;1912;51.358;12.282;2022-12-29T10:58:04;12.90;1.00
3794;DHT22;1912;51.358;12.282;2022-12-29T11:00:31;12.90;1.00
3794;DHT22;1912;51.358;12.282;2022-12-29T11:03:10;12.90;1.00
3794;DHT22;1912;51.358;12.282;2022-12-29T11:08:45;13.00;1.00
3794;DHT22;1912;51.358;12.282;2022-12-29T11:11:23;13.30;1.00
3794;DHT22;1912;51.358;12.282;2022-12-29T11:14:01;13.20;1.00
3794;DHT22;1912;51.358;12.282;2022-12-29T11:16:34;13.20;1.00
3794;DHT22;1912;51.358;12.282;2022-12-29T11:19:00;13.10;1.00
3794;DHT22;1912;51.358;12.282;2022-12-29T11:21:37;13.20;1.00
3794;DHT22;1912;51.358;12.282;2022-12-29T11:24:21;13.20;1.00
3794;DHT22;1912;51.358;12.282;2022-12-29T11:26:50;13.30;1.00
3794;DHT22;1912;51.358;12.282;2022-12-29T11:29:27;13.30;1.00
3794;DHT22;1912;51.358;12.282;2022-12-29T11:31:58;13.30;1.00
3794;DHT22;1912;51.358;12.282;2022-12-29T11:34:25;13.30;1.00
3794;DHT22;1912;51.358;12.282;2022-12-29T11:37:02;13.20;1.00
3794;DHT22;1912;51.358;12.282;2022-12-29T11:39:41;13.20;1.00
3794;DHT22;1912;51.358;12.282;2022-12-29T11:42:38;13.10;1.00
3794;DHT22;1912;51.358;12.282;2022-12-29T11:45:15;13.10;1.00
3794;DHT22;1912;51.358;12.282;2022-12-29T11:48:28;13.00;1.00
3794;DHT22;1912;51.358;12.282;2022-12-29T11:50:40;13.10;1.00
3794;DHT22;1912;51.358;12.282;2022-12-29T11:53:23;13.00;1.00
3794;DHT22;1912;51.358;12.282;2022-12-29T11:55:59;13.00;1.00
3794;DHT22;1912;51.358;12.282;2022-12-29T11:58:33;13.00;1.00
3794;DHT22;1912;51.358;12.282;2022-12-29T12:04:01;13.00;1.00
3794;DHT22;1912;51.358;12.282;2022-12-29T12:06:32;13.00;1.00
3794;DHT22;1912;51.358;12.282;2022-12-29T12:09:06;13.10;1.00
3794;DHT22;1912;51.358;12.282;2022-12-29T12:11:52;13.20;1.00
3794;DHT22;1912;51.358;12.282;2022-12-29T12:14:29;13.20;1.00
3794;DHT22;1912;51.358;12.282;2022-12-29T12:17:19;13.20;1.00
3794;DHT22;1912;51.358;12.282;2022-12-29T12:27:39;13.20;1.00
3794;DHT22;1912;51.358;12.282;2022-12-29T12:30:16;13.20;1.00
3794;DHT22;1912;51.358;12.282;2022-12-29T12:33:06;13.20;1.00
3794;DHT22;1912;51.358;12.282;2022-12-29T12:39:21;13.20;1.00
3794;DHT22;1912;51.358;12.282;2022-12-29T12:42:21;13.20;1.00
3794;DHT22;1912;51.358;12.282;2022-12-29T12:45:26;13.10;1.00
3794;DHT22;1912;51.358;12.282;2022-12-29T12:48:12;13.10;1.00
3794;DHT22;1912;51.358;12.282;2022-12-29T12:50:47;13.00;1.00
3794;DHT22;1912;51.358;12.282;2022-12-29T12:57:03;13.00;1.00
3794;DHT22;1912;51.358;12.282;2022-12-29T13:00:11;13.00;1.00
3794;DHT22;1912;51.358;12.282;2022-12-29T13:03:11;13.00;1.00
3794;DHT22;1912;51.358;12.282;2022-12-29T13:05:47;13.00;1.00
3794;DHT22;1912;51.358;12.282;2022-12-29T13:09:00;13.00;1.00
3794;DHT22;1912;51.358;12.282;2022-12-29T13:11:50;13.10;1.00
3794;DHT22;1912;51.358;12.282;2022-12-29T13:15:32;13.10;1.00
3794;DHT22;1912;51.358;12.282;2022-12-29T13:17:46;13.10;1.00
3794;DHT22;1912;51.358;12.282;2022-12-29T13:23:37;13.00;1.00
3794;DHT22;1912;51.358;12.282;2022-12-29T13:26:14;12.90;1.00
3794;DHT22;1912;51.358;12.282;2022-12-29T13:29:04;12.80;1.00
3794;DHT22;1912;51.358;12.282;2022-12-29T13:31:55;12.70;1.00
3794;DHT22;1912;51.358;12.282;2022-12-29T13:34:38;12.60;1.00
3794;DHT22;1912;51.358;12.282;2022-12-29T13:37:16;12.70;1.00
3794;DHT22;1912;51.358;12.282;2022-12-29T13:40:12;12.60;1.00
3794;DHT22;1912;51.358;12.282;2022-12-29T13:42:41;12.70;1.00
3794;DHT22;1912;51.358;12.282;2022-12-29T13:45:16;12.60;1.00
3794;DHT22;1912;51.358;12.282;2022-12-29T13:48:10;12.50;1.00
3794;DHT22;1912;51.358;12.282;2022-12-29T13:50:53;12.50;1.00
3794;DHT22;1912;51.358;12.282;2022-12-29T13:53:27;12.50;1.00
3794;DHT22;1912;51.358;12.282;2022-12-29T13:56:04;12.40;1.00
3794;DHT22;1912;51.358;12.282;2022-12-29T13:59:06;12.30;1.00
3794;DHT22;1912;51.358;12.282;2022-12-29T14:04:29;12.20;1.00
3794;DHT22;1912;51.358;12.282;2022-12-29T14:07:11;12.10;1.00
3794;DHT22;1912;51.358;12.282;2022-12-29T14:09:46;12.00;1.00
3794;DHT22;1912;51.358;12.282;2022-12-29T14:12:32;12.00;1.00
3794;DHT22;1912;51.358;12.282;2022-12-29T14:17:40;11.90;1.00
3794;DHT22;1912;51.358;12.282;2022-12-29T14:20:18;12.00;1.00
3794;DHT22;1912;51.358;12.282;2022-12-29T14:23:26;11.90;1.00
3794;DHT22;1912;51.358;12.282;2022-12-29T14:29:16;11.70;1.00
3794;DHT22;1912;51.358;12.282;2022-12-29T14:32:02;11.70;1.00
3794;DHT22;1912;51.358;12.282;2022-12-29T14:34:29;11.60;1.00
3794;DHT22;1912;51.358;12.282;2022-12-29T14:37:00;11.50;1.00
3794;DHT22;1912;51.358;12.282;2022-12-29T14:39:34;11.50;1.00
3794;DHT22;1912;51.358;12.282;2022-12-29T14:44:34;11.30;1.00
3794;DHT22;1912;51.358;12.282;2022-12-29T14:47:22;11.30;1.00
3794;DHT22;1912;51.358;12.282;2022-12-29T14:49:52;11.30;1.00
3794;DHT22;1912;51.358;12.282;2022-12-29T14:52:25;11.20;1.00
3794;DHT22;1912;51.358;12.282;2022-12-29T14:54:55;11.20;1.00
3794;DHT22;1912;51.358;12.282;2022-12-29T14:57:44;11.10;1.00
3794;DHT22;1912;51.358;12.282;2022-12-29T15:00:46;11.10;1.00
3794;DHT22;1912;51.358;12.282;2022-12-29T15:03:25;11.10;1.00
3794;DHT22;1912;51.358;12.282;2022-12-29T15:08:36;11.10;1.00
3794;DHT22;1912;51.358;12.282;2022-12-29T15:11:15;11.10;1.00
3794;DHT22;1912;51.358;12.282;2022-12-29T15:13:45;11.10;1.00
3794;DHT22;1912;51.358;12.282;2022-12-29T15:16:30;11.10;1.00
3794;DHT22;1912;51.358;12.282;2022-12-29T15:18:57;11.10;1.00
3794;DHT22;1912;51.358;12.282;2022-12-29T15:21:26;11.00;1.00
3794;DHT22;1912;51.358;12.282;2022-12-29T15:23:56;11.00;1.00
3794;DHT22;1912;51.358;12.282;2022-12-29T15:26:22;10.90;1.00
3794;DHT22;1912;51.358;12.282;2022-12-29T15:28:51;10.90;1.00
3794;DHT22;1912;51.358;12.282;2022-12-29T15:31:18;10.80;1.00
3794;DHT22;1912;51.358;12.282;2022-12-29T15:33:54;10.80;1.00
3794;DHT22;1912;51.358;12.282;2022-12-29T15:36:29;10.90;1.00
3794;DHT22;1912;51.358;12.282;2022-12-29T15:39:18;10.80;1.00
3794;DHT22;1912;51.358;12.282;2022-12-29T15:42:07;10.70;1.00
3794;DHT22;1912;51.358;12.282;2022-12-29T15:44:43;10.70;1.00
3794;DHT22;1912;51.358;12.282;2022-12-29T15:47:20;10.80;1.00
3794;DHT22;1912;51.358;12.282;2022-12-29T15:49:49;10.70;1.00
3794;DHT22;1912;51.358;12.282;2022-12-29T15:52:21;10.60;1.00
3794;DHT22;1912;51.358;12.282;2022-12-29T15:54:52;10.60;1.00
3794;DHT22;1912;51.358;12.282;2022-12-29T15:57:23;10.50;1.00
3794;DHT22;1912;51.358;12.282;2022-12-29T15:59:51;10.50;1.00
3794;DHT22;1912;51.358;12.282;2022-12-29T16:02:17;10.40;1.00
3794;DHT22;1912;51.358;12.282;2022-12-29T16:04:43;10.40;1.00
3794;DHT22;1912;51.358;12.282;2022-12-29T16:07:27;10.40;1.00
3794;DHT22;1912;51.358;12.282;2022-12-29T16:09:56;10.40;1.00
3794;DHT22;1912;51.358;12.282;2022-12-29T16:12:33;10.30;1.00
3794;DHT22;1912;51.358;12.282;2022-12-29T16:15:06;10.30;1.00
3794;DHT22;1912;51.358;12.282;2022-12-29T16:17:43;10.10;1.00
3794;DHT22;1912;51.358;12.282;2022-12-29T16:20:25;10.00;1.00
3794;DHT22;1912;51.358;12.282;2022-12-29T16:22:59;9.90;1.00
3794;DHT22;1912;51.358;12.282;2022-12-29T16:25:29;9.80;1.00
3794;DHT22;1912;51.358;12.282;2022-12-29T16:28:01;9.80;1.00
3794;DHT22;1912;51.358;12.282;2022-12-29T16:30:32;9.80;1.00
3794;DHT22;1912;51.358;12.282;2022-12-29T16:33:04;9.90;1.00
3794;DHT22;1912;51.358;12.282;2022-12-29T16:35:46;9.90;1.00
3794;DHT22;1912;51.358;12.282;2022-12-29T16:38:17;9.90;1.00
3794;DHT22;1912;51.358;12.282;2022-12-29T16:40:55;9.90;1.00
3794;DHT22;1912;51.358;12.282;2022-12-29T16:43:32;9.80;1.00
3794;DHT22;1912;51.358;12.282;2022-12-29T16:48:36;9.70;1.00
3794;DHT22;1912;51.358;12.282;2022-12-29T16:51:30;9.70;1.00
3794;DHT22;1912;51.358;12.282;2022-12-29T16:53:57;9.60;1.00
3794;DHT22;1912;51.358;12.282;2022-12-29T16:56:27;9.60;1.00
3794;DHT22;1912;51.358;12.282;2022-12-29T17:01:54;9.50;1.00
3794;DHT22;1912;51.358;12.282;2022-12-29T17:04:20;9.40;1.00
3794;DHT22;1912;51.358;12.282;2022-12-29T17:06:46;9.40;1.00
3794;DHT22;1912;51.358;12.282;2022-12-29T17:09:22;9.30;1.00
3794;DHT22;1912;51.358;12.282;2022-12-29T17:11:54;9.20;1.00
3794;DHT22;1912;51.358;12.282;2022-12-29T17:14:44;9.10;1.00
3794;DHT22;1912;51.358;12.282;2022-12-29T17:17:15;9.00;1.00
3794;DHT22;1912;51.358;12.282;2022-12-29T17:20:20;9.00;1.00
3794;DHT22;1912;51.358;12.282;2022-12-29T17:22:46;8.90;1.00
3794;DHT22;1912;51.358;12.282;2022-12-29T17:25:14;8.80;1.00
3794;DHT22;1912;51.358;12.282;2022-12-29T17:27:48;8.70;1.00
3794;DHT22;1912;51.358;12.282;2022-12-29T17:30:20;8.50;1.00
3794;DHT22;1912;51.358;12.282;2022-12-29T17:33:11;8.40;1.00
3794;DHT22;1912;51.358;12.282;2022-12-29T17:35:38;8.50;1.00
3794;DHT22;1912;51.358;12.282;2022-12-29T17:38:31;8.50;1.00
3794;DHT22;1912;51.358;12.282;2022-12-29T17:40:59;8.40;1.00
3794;DHT22;1912;51.358;12.282;2022-12-29T17:43:26;8.40;1.00
3794;DHT22;1912;51.358;12.282;2022-12-29T17:45:56;8.20;1.00
3794;DHT22;1912;51.358;12.282;2022-12-29T17:48:23;8.20;1.00
3794;DHT22;1912;51.358;12.282;2022-12-29T17:50:51;8.30;1.00
3794;DHT22;1912;51.358;12.282;2022-12-29T17:53:23;8.30;1.00
3794;DHT22;1912;51.358;12.282;2022-12-29T17:55:51;8.30;1.00
3794;DHT22;1912;51.358;12.282;2022-12-29T17:58:20;8.30;1.00
3794;DHT22;1912;51.358;12.282;2022-12-29T18:00:49;8.30;1.00
3794;DHT22;1912;51.358;12.282;2022-12-29T18:03:34;8.20;1.00
3794;DHT22;1912;51.358;12.282;2022-12-29T18:06:02;8.10;1.00
3794;DHT22;1912;51.358;12.282;2022-12-29T18:08:31;7.90;1.00
3794;DHT22;1912;51.358;12.282;2022-12-29T18:10:58;7.90;1.00
3794;DHT22;1912;51.358;12.282;2022-12-29T18:13:27;7.90;1.00
3794;DHT22;1912;51.358;12.282;2022-12-29T18:15:55;7.90;1.00
3794;DHT22;1912;51.358;12.282;2022-12-29T18:18:23;7.90;1.00
3794;DHT22;1912;51.358;12.282;2022-12-29T18:20:52;7.80;1.00
3794;DHT22;1912;51.358;12.282;2022-12-29T18:23:22;7.70;1.00
3794;DHT22;1912;51.358;12.282;2022-12-29T18:25:58;7.70;1.00
3794;DHT22;1912;51.358;12.282;2022-12-29T18:28:26;7.60;1.00
3794;DHT22;1912;51.358;12.282;2022-12-29T18:30:54;7.60;1.00
3794;DHT22;1912;51.358;12.282;2022-12-29T18:33:22;7.60;1.00
3794;DHT22;1912;51.358;12.282;2022-12-29T18:36:02;7.60;1.00
3794;DHT22;1912;51.358;12.282;2022-12-29T18:38:29;7.60;1.00
3794;DHT22;1912;51.358;12.282;2022-12-29T18:40:57;7.60;1.00
3794;DHT22;1912;51.358;12.282;2022-12-29T18:43:23;7.50;1.00
3794;DHT22;1912;51.358;12.282;2022-12-29T18:45:49;7.50;1.00
3794;DHT22;1912;51.358;12.282;2022-12-29T18:48:16;7.40;1.00
3794;DHT22;1912;51.358;12.282;2022-12-29T18:50:43;7.40;1.00
3794;DHT22;1912;51.358;12.282;2022-12-29T18:53:15;7.40;1.00
3794;DHT22;1912;51.358;12.282;2022-12-29T18:55:42;7.50;1.00
3794;DHT22;1912;51.358;12.282;2022-12-29T18:58:08;7.70;1.00
3794;DHT22;1912;51.358;12.282;2022-12-29T19:00:33;7.70;1.00
3794;DHT22;1912;51.358;12.282;2022-12-29T19:02:59;7.80;1.00